Meteo Giornale » Osservazioni meteo Colombia » Rionegro-J M Cordova
ore: 03:00 - Osservazioni Meteo Rionegro-J M Cordova
Lat. 6° 8' N Lon. 75° 26' W Alt. 2140 metri s.l.m.
14 °C
Molto Nuvoloso
Temp. 24 Ore
14 °C
25 °C
Nord
1.8 Km/h
Dew point 14 °C
Umidità 100 %
Visibilità 8 Km
Il sole sorge alle ore 05:54
Il sole tramonta alle ore 18:08
| Data e Ora | Cielo e Fenomeni | T °C | DP °C | Um. % | Pres. hPa | Vis. km | Vento km/h | |
|---|---|---|---|---|---|---|---|---|
| Oggi h: 03:00 | Molto Nuvoloso | 14 | 14 | 100 | 1026 | 8 | N 1.8 | |
| Oggi h: 02:00 | Molto Nuvoloso | 14 | 14 | 100 | 1027 | 8 | N 3.7 | |
| Oggi h: 01:00 | Pioviggine | 14 | 14 | 100 | 1028 | 8 | N 1.8 | |
| Oggi h: 00:00 | Pioviggine | 14 | 14 | 100 | 1029 | 5 | N 3.7 | |
| Ieri h: 23:00 | Pioggia | 15 | 14 | 93 | 1029 | 4 | N 1.8 | |
| Ieri h: 22:00 | Pioviggine | 15 | 15 | 100 | 1028 | 5 | N 1.8 | |
| Ieri h: 21:05 | Pioggia | 17 | 15 | 88 | 1027 | 3 | SE 7.4 | |
| Ieri h: 21:00 | Temporale nelle vicinanze | 18 | 16 | 88 | 1027 | 10 | N 5.5 | |
| Ieri h: 20:00 | Temporale nelle vicinanze | 18 | 15 | 82 | 1026 | 10 | N 5.5 | |
| Ieri h: 19:00 | Nuvoloso | 20 | 14 | 68 | 1025 | 10 | N 5.5 | |
| Ieri h: 18:00 | Nuvoloso | 21 | 12 | 56 | 1024 | 10 | N 5.5 | |
| Ieri h: 17:00 | Nuvoloso | 24 | 11 | 43 | 1023 | 10 | N 7.4 | |
| Ieri h: 16:00 | Nuvoloso | 25 | 11 | 41 | 1024 | 10 | N 9.3 | |
| Ieri h: 15:00 | Nuvoloso | 24 | 10 | 41 | 1024 | 10 | SE 13 | |
| Ieri h: 14:00 | Nuvoloso | 24 | 11 | 43 | 1025 | 10 | N 13 | |
| Ieri h: 13:00 | Nuvoloso | 25 | 13 | 47 | 1025 | 10 | N 9.3 | |
| Ieri h: 12:00 | Nuvoloso | 24 | 12 | 47 | 1026 | 10 | N 9.3 | |
| Ieri h: 11:00 | Nuvoloso | 24 | 11 | 43 | 1026 | 10 | S/SE 9.3 | |
| Ieri h: 10:09 | Nuvoloso | 22 | 13 | 56 | 1026 | 10 | N 5.5 | |
| Ieri h: 10:00 | Nuvoloso | 22 | 14 | 60 | 1026 | 10 | N 7.4 | |
| Ieri h: 09:00 | Nuvoloso | 19 | 15 | 77 | 1027 | 10 | O/SO 7.4 | |
| Ieri h: 08:22 | Nuvoloso | 18 | 15 | 82 | 1027 | 10 | N 3.7 | |
| Ieri h: 08:00 | Molto Nuvoloso | 17 | 15 | 88 | 1026 | 10 | N 5.5 | |
| Ieri h: 07:00 | Banco di nebbia | 15 | 15 | 100 | 1025 | 8 | N 3.7 | |
| Ieri h: 06:00 | Nebbia a tratti | 15 | 15 | 100 | 1025 | 3 | N 3.7 | |
| Ieri h: 05:00 | Molto Nuvoloso | 15 | 15 | 100 | 1025 | 8 | N 5.5 | |
| Ieri h: 04:00 | Molto Nuvoloso | 16 | 16 | 100 | 1025 | 10 | N 3.7 | |



